createdAt,value
2019-01-08T00:00:05.344Z,1001.92
2019-01-08T00:01:05.307Z,1001.91
2019-01-08T00:02:05.296Z,1001.90
2019-01-08T00:03:05.284Z,1001.70
2019-01-08T00:04:05.275Z,1001.72
2019-01-08T00:05:05.284Z,1001.63
2019-01-08T00:06:05.251Z,1001.64
2019-01-08T00:07:05.241Z,1001.68
2019-01-08T00:08:05.230Z,1001.55
2019-01-08T00:09:05.217Z,1001.53
2019-01-08T00:10:05.234Z,1001.58
2019-01-08T00:11:05.197Z,1001.54
2019-01-08T00:12:05.186Z,1001.61
2019-01-08T00:13:05.172Z,1001.41
2019-01-08T00:14:05.162Z,1001.43
2019-01-08T00:15:05.169Z,1001.43
2019-01-08T00:16:05.139Z,1001.46
2019-01-08T00:17:05.130Z,1001.45
2019-01-08T00:18:05.116Z,1001.26
2019-01-08T00:19:05.108Z,1001.29
2019-01-08T00:20:05.114Z,1001.34
2019-01-08T00:21:05.083Z,1001.24
2019-01-08T00:22:05.072Z,1001.36
2019-01-08T00:23:05.061Z,1001.24
2019-01-08T00:24:05.048Z,1001.21
2019-01-08T00:25:05.067Z,1001.18
2019-01-08T00:26:05.028Z,1001.11
2019-01-08T00:27:05.018Z,1001.10
2019-01-08T00:28:05.007Z,1001.10
2019-01-08T00:29:04.993Z,1000.99
2019-01-08T00:30:04.982Z,1000.98
2019-01-08T00:31:04.992Z,1000.90
2019-01-08T00:32:04.962Z,1000.86
2019-01-08T00:33:04.947Z,1000.84
2019-01-08T00:34:04.935Z,1000.92
2019-01-08T00:35:04.942Z,1000.88
2019-01-08T00:36:04.918Z,1000.91
2019-01-08T00:37:04.902Z,1000.93
2019-01-08T00:38:04.894Z,1001.01
2019-01-08T00:39:04.882Z,1000.98
2019-01-08T00:40:04.896Z,1000.89
2019-01-08T00:41:04.859Z,1000.89
2019-01-08T00:42:04.849Z,1000.83
2019-01-08T00:43:04.837Z,1000.86
2019-01-08T00:44:04.827Z,1000.84
2019-01-08T00:45:04.814Z,1000.78
2019-01-08T00:46:04.824Z,1000.68
2019-01-08T00:47:04.793Z,1000.73
2019-01-08T00:48:04.779Z,1000.67
2019-01-08T00:49:04.771Z,1000.70
2019-01-08T00:50:04.779Z,1000.72
2019-01-08T00:51:04.748Z,1000.71
2019-01-08T00:52:04.739Z,1000.69
2019-01-08T00:53:04.725Z,1000.60
2019-01-08T00:54:04.713Z,1000.57
2019-01-08T00:55:04.725Z,1000.59
2019-01-08T00:56:04.693Z,1000.53
2019-01-08T00:57:04.680Z,1000.53
2019-01-08T00:58:04.670Z,1000.42
2019-01-08T00:59:04.658Z,1000.51
2019-01-08T01:00:04.663Z,1000.47
2019-01-08T01:01:04.636Z,1000.53
2019-01-08T01:02:04.625Z,1000.45
2019-01-08T01:03:04.614Z,1000.45
2019-01-08T01:04:04.602Z,1000.33
2019-01-08T01:05:04.610Z,1000.36
2019-01-08T01:06:04.582Z,1000.28
2019-01-08T01:07:04.567Z,1000.38
2019-01-08T01:08:04.557Z,1000.23
2019-01-08T01:09:04.546Z,1000.21
2019-01-08T01:10:04.562Z,1000.27
2019-01-08T01:11:04.526Z,1000.19
2019-01-08T01:12:04.512Z,1000.16
2019-01-08T01:13:04.502Z,1000.18
2019-01-08T01:14:04.492Z,1000.14
2019-01-08T01:15:04.478Z,1000.06
2019-01-08T01:16:04.485Z,999.99
2019-01-08T01:17:04.456Z,999.97
2019-01-08T01:18:04.444Z,999.89
2019-01-08T01:19:04.433Z,999.93
2019-01-08T01:20:04.439Z,999.89
2019-01-08T01:21:04.414Z,999.92
2019-01-08T01:22:04.401Z,999.83
2019-01-08T01:23:04.390Z,999.86
2019-01-08T01:24:04.386Z,999.83
2019-01-08T01:25:04.392Z,999.71
2019-01-08T01:26:04.360Z,999.69
2019-01-08T01:27:04.345Z,999.66
2019-01-08T01:28:04.335Z,999.74
2019-01-08T01:29:04.325Z,999.63
2019-01-08T01:30:04.343Z,999.64
2019-01-08T01:31:04.305Z,999.57
2019-01-08T01:32:04.288Z,999.55
2019-01-08T01:33:04.278Z,999.57
2019-01-08T01:34:04.266Z,999.51
2019-01-08T01:35:04.259Z,999.44
2019-01-08T01:36:04.263Z,999.42
2019-01-08T01:37:04.234Z,999.42
2019-01-08T01:38:04.223Z,999.40
2019-01-08T01:39:04.212Z,999.32
2019-01-08T01:40:04.221Z,999.34
2019-01-08T01:41:04.191Z,999.31
2019-01-08T01:42:04.180Z,999.24
2019-01-08T01:43:04.168Z,999.25
2019-01-08T01:44:04.156Z,999.33
2019-01-08T01:45:04.161Z,999.21
2019-01-08T01:46:04.136Z,999.18
2019-01-08T01:47:04.123Z,999.11
2019-01-08T01:48:04.111Z,999.10
2019-01-08T01:49:04.100Z,999.03
2019-01-08T01:50:04.108Z,999.03
2019-01-08T01:51:04.077Z,999.05
2019-01-08T01:52:04.066Z,999.08
2019-01-08T01:53:04.053Z,999.01
2019-01-08T01:54:04.044Z,998.95
2019-01-08T01:55:04.054Z,998.99
2019-01-08T01:56:04.021Z,999.01
2019-01-08T01:57:04.012Z,998.95
2019-01-08T01:58:04.064Z,998.94
2019-01-08T01:59:08.394Z,998.91
2019-01-08T02:00:03.978Z,998.85
2019-01-08T02:01:03.982Z,998.86
2019-01-08T02:02:03.954Z,998.86
2019-01-08T02:03:03.944Z,998.83
2019-01-08T02:04:03.934Z,998.86
2019-01-08T02:05:03.925Z,998.81
2019-01-08T02:06:03.930Z,998.80
2019-01-08T02:07:03.899Z,998.70
2019-01-08T02:08:03.887Z,998.70
2019-01-08T02:09:03.876Z,998.62
2019-01-08T02:10:03.883Z,998.59
2019-01-08T02:11:03.854Z,998.48
2019-01-08T02:12:03.843Z,998.47
2019-01-08T02:13:03.831Z,998.44
2019-01-08T02:14:03.825Z,998.39
2019-01-08T02:15:03.828Z,998.32
2019-01-08T02:16:03.797Z,998.38
2019-01-08T02:17:03.791Z,998.35
2019-01-08T02:18:03.775Z,998.31
2019-01-08T02:19:03.765Z,998.44
2019-01-08T02:20:03.770Z,998.42
2019-01-08T02:21:03.742Z,998.47
2019-01-08T02:22:03.730Z,998.43
2019-01-08T02:23:03.718Z,998.33
2019-01-08T02:24:03.722Z,998.35
2019-01-08T02:25:03.699Z,998.34
2019-01-08T02:26:03.708Z,998.34
2019-01-08T02:27:03.676Z,998.30
2019-01-08T02:28:03.664Z,998.31
2019-01-08T02:29:03.653Z,998.26
2019-01-08T02:30:03.641Z,998.38
2019-01-08T02:31:03.649Z,998.33
2019-01-08T02:32:03.618Z,998.18
2019-01-08T02:33:03.609Z,998.10
2019-01-08T02:34:03.622Z,998.09
2019-01-08T02:35:03.586Z,998.12
2019-01-08T02:36:03.574Z,998.03
2019-01-08T02:37:03.562Z,998.06
2019-01-08T02:38:03.551Z,998.05
2019-01-08T02:39:03.541Z,998.00
2019-01-08T02:40:03.559Z,997.90
2019-01-08T02:41:03.515Z,997.93
2019-01-08T02:42:03.508Z,998.01
2019-01-08T02:43:03.496Z,998.01
2019-01-08T02:44:03.567Z,997.91
2019-01-08T02:45:03.472Z,998.02
2019-01-08T02:46:03.577Z,997.92
2019-01-08T02:47:03.460Z,997.98
2019-01-08T02:48:03.441Z,997.94
2019-01-08T02:49:03.429Z,997.85
2019-01-08T02:50:03.425Z,997.88
2019-01-08T02:51:03.431Z,997.84
2019-01-08T02:52:03.394Z,997.83
2019-01-08T02:53:03.384Z,997.78
2019-01-08T02:54:03.377Z,997.78
2019-01-08T02:55:03.376Z,997.78
2019-01-08T02:56:03.349Z,997.72
2019-01-08T02:57:03.365Z,997.69
2019-01-08T02:58:03.328Z,997.61
2019-01-08T02:59:03.325Z,997.57
2019-01-08T03:00:03.307Z,997.56
2019-01-08T03:01:03.293Z,997.51
2019-01-08T03:02:03.282Z,997.50
2019-01-08T03:03:03.308Z,997.51
2019-01-08T03:04:03.260Z,997.58
2019-01-08T03:05:03.249Z,997.55
2019-01-08T03:06:03.244Z,997.47
2019-01-08T03:07:03.229Z,997.45
2019-01-08T03:08:03.215Z,997.40
2019-01-08T03:09:03.217Z,997.34
2019-01-08T03:10:03.194Z,997.33
2019-01-08T03:11:03.185Z,997.40
2019-01-08T03:12:03.172Z,997.32
2019-01-08T03:13:03.159Z,997.31
2019-01-08T03:14:03.175Z,997.36
2019-01-08T03:15:03.136Z,997.37
2019-01-08T03:16:03.124Z,997.41
2019-01-08T03:17:03.114Z,997.29
2019-01-08T03:18:03.104Z,997.28
2019-01-08T03:19:03.091Z,997.32
2019-01-08T03:20:03.114Z,997.27
2019-01-08T03:21:03.067Z,997.33
2019-01-08T03:22:03.057Z,997.24
2019-01-08T03:23:03.052Z,997.31
2019-01-08T03:24:03.035Z,997.21
2019-01-08T03:25:03.026Z,997.23
2019-01-08T03:26:03.031Z,997.24
2019-01-08T03:27:03.004Z,997.28
2019-01-08T03:28:02.995Z,997.19
2019-01-08T03:29:02.984Z,997.22
2019-01-08T03:30:02.971Z,997.21
2019-01-08T03:31:02.988Z,997.25
2019-01-08T03:32:02.947Z,997.20
2019-01-08T03:33:02.934Z,997.25
2019-01-08T03:34:02.925Z,997.24
2019-01-08T03:35:02.913Z,997.34
2019-01-08T03:36:02.900Z,997.21
2019-01-08T03:37:02.922Z,997.16
2019-01-08T03:38:02.879Z,997.19
2019-01-08T03:39:02.867Z,997.16
2019-01-08T03:40:02.859Z,997.17
2019-01-08T03:41:02.847Z,997.17
2019-01-08T03:42:02.835Z,997.11
2019-01-08T03:43:02.840Z,997.16
2019-01-08T03:44:02.813Z,997.18
2019-01-08T03:45:02.801Z,997.10
2019-01-08T03:46:02.793Z,997.11
2019-01-08T03:47:02.784Z,997.09
2019-01-08T03:48:02.796Z,997.09
2019-01-08T03:49:02.756Z,997.04
2019-01-08T03:50:11.390Z,996.98
2019-01-08T03:51:12.431Z,996.92
2019-01-08T03:52:12.271Z,996.90
2019-01-08T03:53:10.641Z,996.92
2019-01-08T03:54:02.700Z,996.85
2019-01-08T03:55:13.046Z,996.82
2019-01-08T03:56:12.584Z,996.75
2019-01-08T03:57:02.669Z,996.76
2019-01-08T03:58:02.656Z,996.75
2019-01-08T03:59:02.672Z,996.75
2019-01-08T04:00:02.632Z,996.63
2019-01-08T04:01:02.622Z,996.68
2019-01-08T04:02:02.612Z,996.60
2019-01-08T04:03:02.602Z,996.68
2019-01-08T04:04:02.588Z,996.62
2019-01-08T04:05:02.613Z,996.55
2019-01-08T04:06:02.568Z,996.53
2019-01-08T04:07:02.556Z,996.53
2019-01-08T04:08:02.545Z,996.52
2019-01-08T04:09:02.535Z,996.40
2019-01-08T04:10:02.521Z,996.49
2019-01-08T04:11:02.525Z,996.44
2019-01-08T04:12:02.500Z,996.42
2019-01-08T04:13:02.490Z,996.40
2019-01-08T04:14:02.477Z,996.35
2019-01-08T04:15:02.466Z,996.37
2019-01-08T04:16:02.493Z,996.38
2019-01-08T04:17:02.442Z,996.28
2019-01-08T04:18:02.431Z,996.28
2019-01-08T04:19:02.425Z,996.28
2019-01-08T04:20:02.410Z,996.32
2019-01-08T04:21:02.398Z,996.32
2019-01-08T04:22:02.415Z,996.31
2019-01-08T04:23:02.376Z,996.25
2019-01-08T04:24:02.372Z,996.28
2019-01-08T04:25:02.358Z,996.14
2019-01-08T04:26:02.343Z,996.17
2019-01-08T04:27:02.335Z,996.10
2019-01-08T04:28:02.339Z,996.07
2019-01-08T04:29:02.309Z,996.08
2019-01-08T04:30:02.298Z,995.93
2019-01-08T04:31:02.295Z,996.07
2019-01-08T04:32:02.277Z,995.97
2019-01-08T04:33:02.284Z,995.96
2019-01-08T04:34:02.256Z,995.97
2019-01-08T04:35:02.242Z,995.96
2019-01-08T04:36:02.231Z,995.92
2019-01-08T04:37:02.220Z,995.95
2019-01-08T04:38:02.237Z,995.93
2019-01-08T04:39:02.196Z,995.90
2019-01-08T04:40:02.186Z,995.85
2019-01-08T04:41:02.175Z,995.91
2019-01-08T04:42:02.165Z,995.88
2019-01-08T04:43:02.154Z,995.89
2019-01-08T04:44:02.161Z,995.88
2019-01-08T04:45:02.144Z,995.97
2019-01-08T04:46:02.118Z,995.94
2019-01-08T04:47:02.110Z,995.89
2019-01-08T04:48:02.135Z,995.84
2019-01-08T04:49:02.117Z,995.81
2019-01-08T04:50:02.076Z,995.87
2019-01-08T04:51:02.065Z,995.92
2019-01-08T04:52:02.053Z,995.89
2019-01-08T04:53:02.044Z,995.88
2019-01-08T04:54:02.029Z,995.85
2019-01-08T04:55:02.038Z,995.89
2019-01-08T04:56:02.008Z,995.86
2019-01-08T04:57:01.997Z,995.77
2019-01-08T04:58:01.986Z,995.73
2019-01-08T04:59:01.973Z,995.71
2019-01-08T05:00:01.996Z,995.66
2019-01-08T05:01:01.956Z,995.61
2019-01-08T05:02:01.940Z,995.61
2019-01-08T05:03:01.933Z,995.55
2019-01-08T05:04:01.919Z,995.57
2019-01-08T05:05:01.908Z,995.51
2019-01-08T05:06:01.915Z,995.52
2019-01-08T05:07:01.888Z,995.56
2019-01-08T05:08:01.876Z,995.52
2019-01-08T05:09:01.862Z,995.51
2019-01-08T05:10:01.861Z,995.47
2019-01-08T05:11:01.858Z,995.48
2019-01-08T05:12:01.835Z,995.41
2019-01-08T05:13:01.818Z,995.40
2019-01-08T05:14:01.823Z,995.36
2019-01-08T05:15:01.797Z,995.31
2019-01-08T05:16:01.816Z,995.35
2019-01-08T05:17:01.773Z,995.31
2019-01-08T05:18:01.763Z,995.34
2019-01-08T05:19:01.754Z,995.37
2019-01-08T05:20:01.738Z,995.37
2019-01-08T05:21:01.731Z,995.29
2019-01-08T05:22:01.743Z,995.30
2019-01-08T05:23:01.714Z,995.26
2019-01-08T05:24:01.698Z,995.27
2019-01-08T05:25:01.684Z,995.22
2019-01-08T05:26:01.679Z,995.22
2019-01-08T05:27:01.695Z,995.20
2019-01-08T05:28:01.653Z,995.15
2019-01-08T05:29:01.641Z,995.15
2019-01-08T05:30:08.007Z,995.08
2019-01-08T05:31:02.628Z,995.06
2019-01-08T05:32:01.606Z,995.13
2019-01-08T05:33:01.612Z,994.98
2019-01-08T05:34:01.584Z,995.10
2019-01-08T05:35:01.576Z,995.00
2019-01-08T05:36:01.561Z,995.00
2019-01-08T05:37:01.550Z,994.97
2019-01-08T05:38:01.558Z,994.93
2019-01-08T05:39:01.531Z,994.88
2019-01-08T05:40:01.520Z,994.85
2019-01-08T05:41:01.523Z,994.83
2019-01-08T05:42:01.494Z,994.74
2019-01-08T05:43:01.482Z,994.79
2019-01-08T05:44:01.472Z,994.81
2019-01-08T05:45:01.465Z,994.71
2019-01-08T05:46:01.468Z,994.73
2019-01-08T05:47:01.439Z,994.71
2019-01-08T05:48:01.426Z,994.67
2019-01-08T05:49:01.446Z,994.69
2019-01-08T05:50:01.407Z,994.71
2019-01-08T05:51:01.395Z,994.61
2019-01-08T05:52:01.385Z,994.61
2019-01-08T05:53:01.373Z,994.67
2019-01-08T05:54:01.361Z,994.63
2019-01-08T05:55:01.371Z,994.51
2019-01-08T05:56:01.339Z,994.56
2019-01-08T05:57:01.328Z,994.59
2019-01-08T05:58:01.315Z,994.63
2019-01-08T05:59:01.306Z,994.61
2019-01-08T06:00:01.326Z,994.55
2019-01-08T06:01:01.283Z,994.62
2019-01-08T06:02:01.273Z,994.68
2019-01-08T06:03:01.259Z,994.62
2019-01-08T06:04:01.248Z,994.59
2019-01-08T06:05:01.237Z,994.57
2019-01-08T06:06:01.243Z,994.57
2019-01-08T06:07:01.218Z,994.56
2019-01-08T06:08:01.203Z,994.50
2019-01-08T06:09:01.195Z,994.57
2019-01-08T06:10:01.181Z,994.51
2019-01-08T06:11:01.202Z,994.52
2019-01-08T06:12:01.160Z,994.48
2019-01-08T06:13:01.151Z,994.57
2019-01-08T06:14:01.137Z,994.51
2019-01-08T06:15:01.126Z,994.53
2019-01-08T06:16:01.208Z,994.52
2019-01-08T06:17:01.123Z,994.54
2019-01-08T06:18:01.093Z,994.51
2019-01-08T06:19:01.089Z,994.44
2019-01-08T06:20:01.075Z,994.52
2019-01-08T06:21:01.059Z,994.46
2019-01-08T06:22:01.076Z,994.49
2019-01-08T06:23:01.039Z,994.37
2019-01-08T06:24:01.025Z,994.35
2019-01-08T06:25:01.017Z,994.27
2019-01-08T06:26:01.008Z,994.26
2019-01-08T06:27:00.992Z,994.24
2019-01-08T06:28:00.998Z,994.13
2019-01-08T06:29:00.969Z,994.27
2019-01-08T06:30:00.961Z,994.28
2019-01-08T06:31:00.947Z,994.23
2019-01-08T06:32:00.935Z,994.13
2019-01-08T06:33:00.957Z,994.10
2019-01-08T06:34:00.913Z,994.10
2019-01-08T06:35:00.902Z,994.00
2019-01-08T06:36:00.891Z,993.98
2019-01-08T06:37:00.880Z,993.97
2019-01-08T06:38:00.869Z,993.99
2019-01-08T06:39:00.879Z,993.91
2019-01-08T06:40:00.848Z,993.93
2019-01-08T06:41:00.836Z,993.89
2019-01-08T06:42:00.826Z,993.91
2019-01-08T06:43:00.813Z,993.84
2019-01-08T06:44:00.818Z,993.85
2019-01-08T06:45:00.790Z,993.78
2019-01-08T06:46:00.783Z,993.82
2019-01-08T06:47:00.768Z,993.83
2019-01-08T06:48:00.757Z,993.81
2019-01-08T06:49:00.775Z,993.74
2019-01-08T06:50:00.734Z,993.74
2019-01-08T06:51:00.739Z,993.67
2019-01-08T06:52:00.718Z,993.60
2019-01-08T06:53:00.702Z,993.60
2019-01-08T06:54:00.718Z,993.53
2019-01-08T06:55:00.679Z,993.60
2019-01-08T06:56:00.669Z,993.61
2019-01-08T06:57:00.656Z,993.45
2019-01-08T06:58:00.645Z,993.55
2019-01-08T06:59:00.634Z,993.50
2019-01-08T07:00:00.641Z,993.40
2019-01-08T07:01:00.612Z,993.44
2019-01-08T07:02:00.603Z,993.46
2019-01-08T07:03:00.590Z,993.40
2019-01-08T07:04:00.578Z,993.42
2019-01-08T07:05:00.600Z,993.49
2019-01-08T07:06:00.557Z,993.45
2019-01-08T07:07:00.545Z,993.44
2019-01-08T07:08:00.534Z,993.41
2019-01-08T07:09:00.522Z,993.37
2019-01-08T07:10:00.511Z,993.35
2019-01-08T07:11:00.520Z,993.43
2019-01-08T07:12:00.489Z,993.33
2019-01-08T07:13:00.478Z,993.38
2019-01-08T07:14:00.467Z,993.35
2019-01-08T07:15:00.537Z,993.35
2019-01-08T07:16:00.471Z,993.31
2019-01-08T07:17:00.434Z,993.34
2019-01-08T07:18:00.423Z,993.32
2019-01-08T07:19:00.411Z,993.30
2019-01-08T07:20:00.533Z,993.33
2019-01-08T07:21:00.389Z,993.32
2019-01-08T07:22:00.397Z,993.31
2019-01-08T07:23:00.365Z,993.32
2019-01-08T07:24:00.358Z,993.31
2019-01-08T07:25:00.540Z,993.21
2019-01-08T07:26:00.333Z,993.27
2019-01-08T07:27:00.352Z,993.23
2019-01-08T07:28:00.310Z,993.23
2019-01-08T07:29:00.300Z,993.18
2019-01-08T07:30:00.301Z,993.28
2019-01-08T07:31:00.277Z,993.22
2019-01-08T07:32:00.266Z,993.22
2019-01-08T07:33:00.273Z,993.14
2019-01-08T07:34:00.245Z,993.18
2019-01-08T07:35:00.274Z,993.13
2019-01-08T07:36:00.223Z,993.13
2019-01-08T07:37:00.211Z,993.13
2019-01-08T07:38:00.226Z,993.18
2019-01-08T07:39:00.189Z,993.13
2019-01-08T07:40:00.185Z,993.04
2019-01-08T07:41:00.173Z,993.14
2019-01-08T07:42:00.157Z,993.09
2019-01-08T07:43:00.145Z,993.05
2019-01-08T07:44:00.150Z,993.10
2019-01-08T07:45:00.191Z,992.96
2019-01-08T07:46:00.111Z,992.97
2019-01-08T07:47:00.099Z,992.96
2019-01-08T07:48:00.090Z,992.92
2019-01-08T07:49:00.097Z,993.02
2019-01-08T07:50:00.100Z,992.84
2019-01-08T07:51:00.055Z,992.91
2019-01-08T07:52:00.044Z,992.99
2019-01-08T07:53:00.033Z,992.87
2019-01-08T07:54:00.049Z,992.88
2019-01-08T07:55:00.010Z,992.82
2019-01-08T07:55:59.999Z,992.85
2019-01-08T07:56:59.988Z,992.85
2019-01-08T07:57:59.975Z,992.81
2019-01-08T07:58:59.965Z,992.74
2019-01-08T07:59:59.970Z,992.76
2019-01-08T08:00:59.942Z,992.74
2019-01-08T08:01:59.932Z,992.66
2019-01-08T08:02:59.921Z,992.60
2019-01-08T08:03:59.908Z,992.60
2019-01-08T08:04:59.924Z,992.62
2019-01-08T08:05:59.887Z,992.59
2019-01-08T08:06:59.876Z,992.60
2019-01-08T08:07:59.926Z,992.55
2019-01-08T08:08:59.854Z,992.57
2019-01-08T08:09:59.845Z,992.63
2019-01-08T08:10:59.851Z,992.63
2019-01-08T08:11:59.821Z,992.60
2019-01-08T08:12:59.808Z,992.58
2019-01-08T08:13:59.797Z,992.54
2019-01-08T08:14:59.786Z,992.55
2019-01-08T08:15:59.805Z,992.59
2019-01-08T08:16:59.764Z,992.66
2019-01-08T08:17:59.751Z,992.64
2019-01-08T08:18:59.740Z,992.55
2019-01-08T08:19:59.727Z,992.56
2019-01-08T08:20:59.719Z,992.56
2019-01-08T08:21:59.723Z,992.62
2019-01-08T08:22:59.699Z,992.57
2019-01-08T08:23:59.685Z,992.61
2019-01-08T08:24:59.674Z,992.54
2019-01-08T08:25:59.663Z,992.53
2019-01-08T08:26:59.678Z,992.55
2019-01-08T08:27:59.641Z,992.57
2019-01-08T08:28:59.627Z,992.47
2019-01-08T08:29:59.618Z,992.43
2019-01-08T08:30:59.608Z,992.52
2019-01-08T08:31:59.599Z,992.52
2019-01-08T08:32:59.601Z,992.49
2019-01-08T08:33:59.573Z,992.51
2019-01-08T08:35:07.835Z,992.43
2019-01-08T08:36:00.550Z,992.39
2019-01-08T08:36:59.569Z,992.42
2019-01-08T08:37:59.529Z,992.33
2019-01-08T08:38:59.516Z,992.39
2019-01-08T08:39:59.506Z,992.33
2019-01-08T08:40:59.496Z,992.27
2019-01-08T08:41:59.483Z,992.29
2019-01-08T08:42:59.488Z,992.32
2019-01-08T08:43:59.459Z,992.33
2019-01-08T08:44:59.449Z,992.37
2019-01-08T08:45:59.439Z,992.42
2019-01-08T08:46:59.428Z,992.40
2019-01-08T08:47:59.446Z,992.33
2019-01-08T08:48:59.405Z,992.38
2019-01-08T08:49:59.393Z,992.34
2019-01-08T08:50:59.382Z,992.38
2019-01-08T08:51:59.371Z,992.30
2019-01-08T08:52:59.360Z,992.27
2019-01-08T08:53:59.366Z,992.29
2019-01-08T08:54:59.338Z,992.23
2019-01-08T08:55:59.326Z,992.21
2019-01-08T08:56:59.318Z,992.26
2019-01-08T08:57:59.303Z,992.24
2019-01-08T08:58:59.322Z,992.21
2019-01-08T08:59:59.281Z,992.22
2019-01-08T09:01:06.672Z,992.09
2019-01-08T09:02:00.259Z,992.04
2019-01-08T09:02:59.248Z,992.02
2019-01-08T09:03:59.242Z,992.04
2019-01-08T09:04:59.243Z,991.98
2019-01-08T09:05:59.215Z,992.08
2019-01-08T09:06:59.203Z,992.04
2019-01-08T09:07:59.192Z,992.07
2019-01-08T09:08:59.182Z,991.98
2019-01-08T09:09:59.191Z,991.95
2019-01-08T09:10:59.159Z,991.95
2019-01-08T09:11:59.153Z,991.98
2019-01-08T09:12:59.136Z,991.90
2019-01-08T09:13:59.126Z,991.87
2019-01-08T09:14:59.147Z,991.84
2019-01-08T09:15:59.103Z,991.80
2019-01-08T09:16:59.092Z,991.81
2019-01-08T09:17:59.080Z,991.81
2019-01-08T09:18:59.069Z,991.88
2019-01-08T09:19:59.058Z,991.74
2019-01-08T09:20:59.067Z,991.91
2019-01-08T09:21:59.036Z,991.88
2019-01-08T09:22:59.025Z,991.89
2019-01-08T09:23:59.015Z,991.85
2019-01-08T09:24:59.003Z,991.84
2019-01-08T09:25:59.023Z,991.81
2019-01-08T09:26:58.983Z,991.73
2019-01-08T09:27:58.969Z,991.70
2019-01-08T09:28:58.957Z,991.74
2019-01-08T09:29:58.948Z,991.70
2019-01-08T09:30:58.935Z,991.71
2019-01-08T09:31:58.942Z,991.68
2019-01-08T09:32:58.914Z,991.70
2019-01-08T09:33:58.904Z,991.63
2019-01-08T09:34:58.889Z,991.53
2019-01-08T09:35:58.880Z,991.54
2019-01-08T09:36:58.896Z,991.50
2019-01-08T09:37:58.856Z,991.53
2019-01-08T09:38:58.848Z,991.55
2019-01-08T09:39:58.835Z,991.49
2019-01-08T09:40:58.824Z,991.52
2019-01-08T09:41:58.890Z,991.59
2019-01-08T09:42:58.818Z,991.50
2019-01-08T09:43:58.790Z,991.42
2019-01-08T09:44:58.780Z,991.49
2019-01-08T09:45:58.768Z,991.46
2019-01-08T09:46:58.758Z,991.41
2019-01-08T09:47:58.773Z,991.45
2019-01-08T09:48:58.735Z,991.41
2019-01-08T09:49:58.723Z,991.27
2019-01-08T09:50:58.711Z,991.23
2019-01-08T09:51:58.704Z,991.17
2019-01-08T09:52:58.690Z,991.19
2019-01-08T09:53:58.699Z,991.16
2019-01-08T09:54:58.669Z,991.10
2019-01-08T09:55:58.658Z,990.97
2019-01-08T09:56:58.645Z,991.05
2019-01-08T09:57:58.634Z,991.03
2019-01-08T09:58:58.653Z,991.08
2019-01-08T09:59:58.611Z,990.94
2019-01-08T10:00:58.601Z,991.00
2019-01-08T10:01:58.589Z,991.01
2019-01-08T10:02:58.580Z,990.85
2019-01-08T10:03:58.567Z,990.96
2019-01-08T10:04:58.573Z,990.96
2019-01-08T10:05:58.546Z,990.90
2019-01-08T10:06:58.536Z,990.92
2019-01-08T10:07:58.526Z,990.88
2019-01-08T10:08:58.512Z,990.87
2019-01-08T10:09:58.515Z,990.81
2019-01-08T10:10:58.487Z,990.85
2019-01-08T10:11:58.478Z,990.88
2019-01-08T10:12:58.466Z,990.78
2019-01-08T10:13:58.455Z,990.80
2019-01-08T10:14:58.472Z,990.71
2019-01-08T10:15:58.434Z,990.70
2019-01-08T10:16:58.421Z,990.75
2019-01-08T10:17:58.411Z,990.71
2019-01-08T10:18:58.402Z,990.57
2019-01-08T10:19:58.390Z,990.58
2019-01-08T10:20:58.399Z,990.56
2019-01-08T10:21:58.366Z,990.63
2019-01-08T10:22:58.355Z,990.55
2019-01-08T10:23:58.350Z,990.52
2019-01-08T10:24:58.335Z,990.49
2019-01-08T10:25:58.354Z,990.47
2019-01-08T10:26:58.311Z,990.44
2019-01-08T10:27:58.299Z,990.39
2019-01-08T10:28:58.290Z,990.37
2019-01-08T10:29:58.278Z,990.31
2019-01-08T10:30:58.265Z,990.19
2019-01-08T10:31:58.270Z,990.27
2019-01-08T10:32:58.245Z,990.20
2019-01-08T10:33:58.232Z,990.17
2019-01-08T10:34:59.509Z,990.14
2019-01-08T10:35:58.211Z,990.15
2019-01-08T10:36:58.213Z,990.11
2019-01-08T10:37:58.190Z,989.98
2019-01-08T10:38:58.175Z,990.04
2019-01-08T10:39:58.165Z,990.01
2019-01-08T10:40:58.154Z,990.01
2019-01-08T10:41:58.171Z,989.96
2019-01-08T10:42:58.134Z,989.99
2019-01-08T10:43:58.121Z,989.86
2019-01-08T10:44:58.110Z,989.89
2019-01-08T10:45:58.098Z,989.72
2019-01-08T10:46:58.087Z,989.77
2019-01-08T10:47:58.096Z,989.69
2019-01-08T10:48:58.064Z,989.66
2019-01-08T10:49:58.054Z,989.70
2019-01-08T10:50:58.039Z,989.59
2019-01-08T10:51:58.029Z,989.62
2019-01-08T10:52:58.041Z,989.53
2019-01-08T10:53:58.006Z,989.54
2019-01-08T10:54:57.998Z,989.37
2019-01-08T10:55:57.983Z,989.40
2019-01-08T10:56:57.972Z,989.40
2019-01-08T10:57:57.962Z,989.40
2019-01-08T10:58:57.970Z,989.32
2019-01-08T10:59:57.941Z,989.36
2019-01-08T11:00:57.931Z,989.30
2019-01-08T11:01:57.918Z,989.33
2019-01-08T11:02:57.907Z,989.32
2019-01-08T11:03:57.931Z,989.26
2019-01-08T11:04:57.886Z,989.30
2019-01-08T11:05:57.874Z,989.09
2019-01-08T11:06:57.863Z,989.25
2019-01-08T11:07:57.853Z,989.23
2019-01-08T11:08:57.839Z,989.18
2019-01-08T11:09:57.847Z,989.15
2019-01-08T11:10:57.818Z,989.28
2019-01-08T11:11:57.807Z,989.20
2019-01-08T11:12:57.795Z,989.17
2019-01-08T11:13:57.783Z,989.24
2019-01-08T11:14:57.804Z,989.17
2019-01-08T11:15:57.765Z,989.12
2019-01-08T11:16:57.756Z,989.09
2019-01-08T11:17:57.744Z,989.18
2019-01-08T11:18:57.732Z,989.12
2019-01-08T11:19:57.716Z,989.17
2019-01-08T11:20:57.723Z,989.12
2019-01-08T11:21:57.693Z,989.11
2019-01-08T11:22:57.683Z,989.20
2019-01-08T11:23:57.672Z,989.19
2019-01-08T11:24:57.661Z,989.22
2019-01-08T11:25:57.665Z,989.14
2019-01-08T11:26:57.641Z,989.08
2019-01-08T11:27:57.628Z,989.10
2019-01-08T11:28:57.617Z,989.01
2019-01-08T11:29:57.604Z,989.04
2019-01-08T11:30:57.622Z,988.96
2019-01-08T11:31:57.584Z,988.96
2019-01-08T11:32:57.571Z,988.91
2019-01-08T11:33:57.562Z,988.87
2019-01-08T11:34:57.550Z,989.01
2019-01-08T11:35:57.538Z,988.98
2019-01-08T11:36:57.544Z,988.87
2019-01-08T11:37:57.516Z,988.96
2019-01-08T11:38:57.504Z,988.99
2019-01-08T11:39:57.502Z,988.86
2019-01-08T11:40:57.484Z,988.93
2019-01-08T11:41:57.502Z,988.93
2019-01-08T11:42:57.459Z,988.80
2019-01-08T11:43:57.450Z,988.73
2019-01-08T11:44:57.440Z,988.66
2019-01-08T11:45:57.426Z,988.71
2019-01-08T11:46:57.415Z,988.79
2019-01-08T11:48:03.776Z,988.70
2019-01-08T11:48:58.393Z,988.77
2019-01-08T11:49:57.382Z,988.82
2019-01-08T11:50:57.372Z,988.83
2019-01-08T11:51:57.359Z,988.73
2019-01-08T11:52:57.367Z,988.74
2019-01-08T11:53:57.338Z,988.82
2019-01-08T11:54:57.328Z,988.85
2019-01-08T11:55:59.014Z,988.73
2019-01-08T11:56:57.303Z,988.71
2019-01-08T11:57:57.323Z,988.74
2019-01-08T11:58:57.361Z,988.74
2019-01-08T11:59:57.271Z,988.74
2019-01-08T12:00:57.261Z,988.74
2019-01-08T12:01:57.691Z,988.65
2019-01-08T12:02:57.237Z,988.55
2019-01-08T12:03:57.245Z,988.47
2019-01-08T12:04:57.213Z,988.51
2019-01-08T12:05:57.443Z,988.45
2019-01-08T12:06:57.192Z,988.56
2019-01-08T12:07:57.182Z,988.54
2019-01-08T12:08:57.187Z,988.66
2019-01-08T12:09:57.159Z,988.61
2019-01-08T12:10:57.147Z,988.66
2019-01-08T12:11:57.137Z,988.57
2019-01-08T12:12:57.123Z,988.50
2019-01-08T12:13:57.143Z,988.55
2019-01-08T12:14:57.102Z,988.51
2019-01-08T12:15:57.095Z,988.59
2019-01-08T12:16:57.079Z,988.37
2019-01-08T12:17:57.066Z,988.57
2019-01-08T12:18:57.058Z,988.58
2019-01-08T12:19:57.067Z,988.51
2019-01-08T12:20:57.034Z,988.46
2019-01-08T12:21:57.029Z,988.48
2019-01-08T12:22:57.011Z,988.54
2019-01-08T12:23:57.000Z,988.51
2019-01-08T12:24:57.018Z,988.49
2019-01-08T12:25:56.977Z,988.51